Time;durP1;ratioP1;P1;durP2;ratioP2;P2;SDS_P1;SDS_P2;PMS_P1;PMS_P2;Temp;Humidity;BMP_temperature;BMP_pressure;BME280_temperature;BME280_humidity;BME280_pressure;Samples;Min_cycle;Max_cycle;Signal;HPM_P1;HPM_P2
2022/01/26 00:06:41;;;;;;;89.85;31.13;;;4.60;99.90;;;;;;5053678;28;20449;-65
2022/01/26 00:09:08;;;;;;;71.78;27.15;;;4.50;99.90;;;;;;5035672;28;20047;-65
2022/01/26 00:11:35;;;;;;;75.25;27.98;;;4.50;99.90;;;;;;5053536;28;20048;-65
2022/01/26 00:14:02;;;;;;;81.95;28.63;;;4.50;99.90;;;;;;5053352;28;20076;-65
2022/01/26 00:16:43;;;;;;;80.20;28.67;;;4.50;99.90;;;;;;5052843;28;20139;-65
2022/01/26 00:19:17;;;;;;;83.82;29.20;;;4.30;99.90;;;;;;5053559;28;20033;-65
2022/01/26 00:21:53;;;;;;;80.70;28.00;;;4.40;99.90;;;;;;5052986;28;20127;-65
2022/01/26 00:24:38;;;;;;;79.07;28.35;;;4.40;99.90;;;;;;5034499;28;20045;-65
2022/01/26 00:29:38;;;;;;;76.40;29.20;;;4.40;99.90;;;;;;5053039;28;20127;-65
2022/01/26 00:40:27;;;;;;;78.30;29.75;;;4.10;99.90;;;;;;5052755;28;20110;-65
2022/01/26 00:42:56;;;;;;;84.93;28.85;;;4.10;99.90;;;;;;5052520;28;20036;-65
2022/01/26 00:45:26;;;;;;;81.00;28.95;;;4.10;99.90;;;;;;5052848;28;20529;-65
2022/01/26 00:47:52;;;;;;;81.57;30.25;;;4.20;99.90;;;;;;5052960;28;20040;-64
2022/01/26 00:50:18;;;;;;;84.40;27.83;;;4.20;99.90;;;;;;5052668;28;20116;-64
2022/01/26 00:52:51;;;;;;;71.28;28.92;;;4.20;99.90;;;;;;5052224;28;20090;-65
2022/01/26 00:55:18;;;;;;;77.75;29.85;;;4.00;99.90;;;;;;5034844;28;20087;-65
2022/01/26 00:57:44;;;;;;;80.85;28.02;;;4.10;99.90;;;;;;5052839;28;20044;-65
2022/01/26 01:00:14;;;;;;;73.53;26.73;;;4.20;99.90;;;;;;5052508;28;20409;-64
2022/01/26 01:02:40;;;;;;;83.68;30.33;;;4.10;99.90;;;;;;5052064;28;20057;-65
2022/01/26 01:05:15;;;;;;;78.72;29.27;;;4.20;99.90;;;;;;5052212;28;20033;-64
2022/01/26 01:07:42;;;;;;;76.18;27.40;;;4.10;99.90;;;;;;5052755;28;20037;-65
2022/01/26 01:10:09;;;;;;;71.72;25.73;;;4.00;99.90;;;;;;5052279;28;20041;-65
2022/01/26 01:12:40;;;;;;;79.40;28.75;;;4.10;99.90;;;;;;5052193;28;20466;-66
2022/01/26 01:15:06;;;;;;;77.70;27.33;;;4.10;99.90;;;;;;5052264;28;20040;-65
2022/01/26 01:17:38;;;;;;;80.57;26.73;;;4.10;99.90;;;;;;5051728;28;20595;-66
2022/01/26 01:32:52;;;;;;;83.00;28.38;;;4.20;99.90;;;;;;5051761;28;20045;-65
2022/01/26 01:35:18;;;;;;;81.75;28.30;;;4.00;99.90;;;;;;5051928;28;20446;-65
2022/01/26 01:37:44;;;;;;;78.57;28.88;;;3.90;99.90;;;;;;5051715;28;20116;-65
2022/01/26 01:40:10;;;;;;;77.10;28.00;;;3.80;99.90;;;;;;5052064;28;20547;-63
2022/01/26 01:42:36;;;;;;;79.07;28.13;;;3.70;99.90;;;;;;5051635;28;20482;-63
2022/01/26 01:45:01;;;;;;;80.47;28.50;;;3.70;99.90;;;;;;5052077;28;20044;-65
2022/01/26 01:47:27;;;;;;;82.32;29.00;;;3.70;99.90;;;;;;5052002;28;20110;-66
2022/01/26 01:49:53;;;;;;;84.90;29.92;;;3.60;99.90;;;;;;5051787;28;20047;-66
2022/01/26 01:52:19;;;;;;;87.07;30.13;;;3.70;99.90;;;;;;5051263;28;20068;-66
2022/01/26 01:54:51;;;;;;;86.45;29.17;;;3.80;99.90;;;;;;5051274;28;20029;-66
2022/01/26 01:57:24;;;;;;;87.85;29.25;;;3.80;99.90;;;;;;5051498;28;20041;-66
2022/01/26 01:59:50;;;;;;;81.85;27.77;;;3.90;99.90;;;;;;5051089;28;20041;-66
2022/01/26 02:02:16;;;;;;;81.78;28.20;;;4.00;99.90;;;;;;5050859;28;20037;-66
2022/01/26 02:04:42;;;;;;;79.00;26.20;;;4.00;99.90;;;;;;5050756;28;20047;-66
2022/01/26 02:07:09;;;;;;;85.78;29.60;;;3.90;99.90;;;;;;5051269;28;20131;-66
2022/01/26 02:09:35;;;;;;;81.32;28.63;;;3.90;99.90;;;;;;5051037;28;20052;-66
2022/01/26 02:12:16;;;;;;;82.47;29.35;;;3.80;99.90;;;;;;5050962;28;20124;-66
2022/01/26 02:14:47;;;;;;;81.60;27.85;;;3.90;99.90;;;;;;5051229;28;20409;-65
2022/01/26 02:17:27;;;;;;;79.20;26.80;;;3.90;99.90;;;;;;5051199;28;20037;-66
2022/01/26 02:52:40;;;;;;;90.63;30.50;;;3.80;99.90;;;;;;5050304;28;20544;-64
2022/01/26 02:55:22;;;;;;;85.68;28.17;;;3.80;99.90;;;;;;5050344;28;20041;-64
2022/01/26 02:58:24;;;;;;;90.47;27.98;;;3.80;99.90;;;;;;5050717;28;20409;-64
2022/01/26 03:03:23;;;;;;;87.07;27.98;;;3.90;99.90;;;;;;5050037;28;20052;-64
2022/01/26 03:05:55;;;;;;;86.38;28.67;;;3.80;99.90;;;;;;5050337;28;20099;-64
2022/01/26 03:08:32;;;;;;;79.43;27.27;;;3.80;99.90;;;;;;5050645;28;20045;-64
2022/01/26 03:11:02;;;;;;;83.55;27.85;;;3.80;99.90;;;;;;5050181;28;20052;-64
2022/01/26 03:13:31;;;;;;;92.13;29.90;;;3.80;99.90;;;;;;5049967;28;20208;-64
2022/01/26 03:16:11;;;;;;;90.05;29.40;;;3.80;99.90;;;;;;5049663;28;20154;-64
2022/01/26 03:18:56;;;;;;;86.47;28.67;;;3.70;99.90;;;;;;5050280;28;20127;-64
2022/01/26 03:21:31;;;;;;;81.13;27.58;;;3.70;99.90;;;;;;5049982;28;20157;-64
2022/01/26 03:32:42;;;;;;;77.05;25.73;;;3.50;99.90;;;;;;5049622;28;20132;-64
2022/01/26 03:34:53;;;;;;;83.30;27.23;;;3.60;99.90;;;;;;5049640;28;20037;-64
2022/01/26 03:37:24;;;;;;;80.03;27.38;;;3.50;99.90;;;;;;5050071;28;20091;-64
2022/01/26 03:39:51;;;;;;;77.88;27.27;;;3.60;99.90;;;;;;5050006;28;20049;-64
2022/01/26 03:42:18;;;;;;;73.72;24.55;;;3.60;99.90;;;;;;5049646;28;20060;-64
2022/01/26 03:44:43;;;;;;;82.55;26.15;;;3.70;99.90;;;;;;5050098;28;20052;-64
2022/01/26 03:47:10;;;;;;;81.30;25.73;;;3.70;99.90;;;;;;5050238;28;20052;-64
2022/01/26 03:49:36;;;;;;;79.38;27.52;;;3.70;99.90;;;;;;5049915;28;20045;-64
2022/01/26 03:52:03;;;;;;;80.47;28.23;;;3.70;99.90;;;;;;5049730;28;20107;-64
2022/01/26 03:54:29;;;;;;;80.65;29.30;;;3.70;99.90;;;;;;5049917;28;20045;-64
2022/01/26 03:56:54;;;;;;;87.40;28.13;;;3.70;99.90;;;;;;5049870;28;20385;-64
2022/01/26 03:59:20;;;;;;;82.00;29.42;;;3.70;99.90;;;;;;5051327;28;20119;-64
2022/01/26 04:01:46;;;;;;;89.57;30.55;;;3.70;99.90;;;;;;5053690;28;20037;-64
2022/01/26 04:04:11;;;;;;;86.07;29.08;;;3.80;99.90;;;;;;5053780;28;20140;-64
2022/01/26 04:06:37;;;;;;;85.07;29.15;;;3.80;99.90;;;;;;5053691;28;20045;-64
2022/01/26 04:09:07;;;;;;;84.60;27.25;;;3.80;99.90;;;;;;5053478;28;20044;-64
2022/01/26 04:11:41;;;;;;;81.70;27.13;;;3.70;99.90;;;;;;5053271;28;20041;-64
2022/01/26 04:14:13;;;;;;;74.93;25.00;;;3.50;99.90;;;;;;5053447;28;20040;-64
2022/01/26 04:16:40;;;;;;;84.95;27.83;;;3.60;99.90;;;;;;5052962;28;20037;-64
2022/01/26 04:19:06;;;;;;;78.03;26.83;;;3.60;99.90;;;;;;5053401;28;20045;-64
2022/01/26 04:21:59;;;;;;;83.65;28.00;;;3.70;99.90;;;;;;5053104;28;20401;-64
2022/01/26 04:24:35;;;;;;;75.03;26.38;;;3.70;99.90;;;;;;5053380;28;20052;-64
2022/01/26 04:27:06;;;;;;;80.15;25.05;;;3.70;99.90;;;;;;5053249;28;20438;-64
2022/01/26 04:29:34;;;;;;;76.25;24.17;;;3.50;99.90;;;;;;5053212;28;20045;-64
2022/01/26 04:32:01;;;;;;;78.50;25.85;;;3.40;99.90;;;;;;5052498;28;20049;-64
2022/01/26 04:34:27;;;;;;;82.63;26.17;;;3.30;99.90;;;;;;5053214;28;20037;-64
2022/01/26 04:36:59;;;;;;;76.78;25.95;;;3.30;99.90;;;;;;5053233;28;20045;-64
2022/01/26 04:39:33;;;;;;;73.40;24.92;;;3.30;99.90;;;;;;5053128;28;20113;-64
2022/01/26 04:42:04;;;;;;;77.00;25.30;;;3.20;99.90;;;;;;5033874;28;20417;-64
2022/01/26 04:44:36;;;;;;;76.80;24.98;;;3.20;99.90;;;;;;5052738;28;20120;-64
2022/01/26 04:47:02;;;;;;;80.13;25.63;;;3.20;99.90;;;;;;5053065;28;20045;-63
2022/01/26 04:49:28;;;;;;;72.30;25.25;;;3.20;99.90;;;;;;5035178;28;20120;-63
2022/01/26 04:51:54;;;;;;;70.22;24.13;;;3.20;99.90;;;;;;5052362;28;20121;-65
2022/01/26 04:54:19;;;;;;;80.53;25.10;;;3.20;99.90;;;;;;5052581;28;20472;-64
2022/01/26 04:56:45;;;;;;;78.72;25.33;;;3.20;99.90;;;;;;5052608;28;20029;-64
2022/01/26 04:59:11;;;;;;;82.07;26.17;;;3.20;99.90;;;;;;5052740;28;20355;-64
2022/01/26 05:01:36;;;;;;;83.63;26.55;;;3.20;99.90;;;;;;5052686;28;20041;-64
2022/01/26 05:04:02;;;;;;;77.57;26.17;;;3.20;99.90;;;;;;5052372;28;20040;-64
2022/01/26 05:06:28;;;;;;;72.88;25.13;;;3.20;99.90;;;;;;5052635;28;20048;-64
2022/01/26 05:08:54;;;;;;;75.82;24.80;;;3.10;99.90;;;;;;5052592;28;20405;-64
2022/01/26 05:11:36;;;;;;;73.90;23.60;;;3.10;99.90;;;;;;5051494;28;20083;-64
2022/01/26 05:14:02;;;;;;;75.43;23.57;;;3.10;99.90;;;;;;5051952;28;20409;-64
2022/01/26 05:16:28;;;;;;;76.32;23.20;;;3.10;99.90;;;;;;5052576;28;20303;-64
2022/01/26 05:18:55;;;;;;;73.53;22.50;;;3.10;99.90;;;;;;5052503;28;20109;-64
2022/01/26 05:21:22;;;;;;;81.03;23.98;;;3.20;99.90;;;;;;5052059;28;20454;-64
2022/01/26 05:23:47;;;;;;;81.10;23.90;;;3.10;99.90;;;;;;5051813;28;20037;-64
2022/01/26 05:26:13;;;;;;;66.70;22.35;;;3.10;99.90;;;;;;5051892;28;20481;-64
2022/01/26 05:28:39;;;;;;;73.97;21.95;;;3.30;99.90;;;;;;5051932;28;20432;-64
2022/01/26 05:31:05;;;;;;;81.07;23.27;;;3.30;99.90;;;;;;5052141;28;20199;-64
2022/01/26 05:33:30;;;;;;;67.85;22.08;;;3.40;99.90;;;;;;5033712;28;20191;-64
2022/01/26 05:35:56;;;;;;;73.55;23.25;;;3.40;99.90;;;;;;5052060;28;20068;-64
2022/01/26 05:38:22;;;;;;;66.22;23.25;;;3.40;99.90;;;;;;5051950;28;20124;-64
2022/01/26 05:40:48;;;;;;;71.63;21.27;;;3.30;99.90;;;;;;5051831;28;20116;-64
2022/01/26 05:43:15;;;;;;;67.05;21.30;;;3.40;99.90;;;;;;5051668;28;20485;-64
2022/01/26 05:45:42;;;;;;;65.70;21.35;;;3.40;99.90;;;;;;5052004;28;20053;-64
2022/01/26 05:48:09;;;;;;;70.43;23.30;;;3.40;99.90;;;;;;5051907;28;20041;-64
2022/01/26 05:50:36;;;;;;;74.30;22.45;;;3.30;99.90;;;;;;5051661;28;20466;-64
2022/01/26 05:53:02;;;;;;;67.70;21.92;;;3.20;99.90;;;;;;5051301;28;20094;-64
2022/01/26 05:55:28;;;;;;;68.75;21.73;;;3.40;99.90;;;;;;5051831;28;20037;-64
2022/01/26 05:57:53;;;;;;;68.25;22.17;;;3.40;99.90;;;;;;5051595;28;20029;-64
2022/01/26 06:00:19;;;;;;;68.15;22.35;;;3.40;99.90;;;;;;5051554;28;20040;-64
2022/01/26 06:02:45;;;;;;;69.63;22.55;;;3.40;99.90;;;;;;5051263;28;20029;-64
2022/01/26 06:05:10;;;;;;;70.68;20.98;;;3.30;99.90;;;;;;5051384;28;20029;-64
2022/01/26 06:07:36;;;;;;;66.97;21.10;;;3.20;99.90;;;;;;5051356;28;20072;-64
2022/01/26 06:10:03;;;;;;;72.38;22.33;;;3.40;99.90;;;;;;5051229;28;20407;-64
2022/01/26 06:12:33;;;;;;;64.32;21.48;;;3.20;99.90;;;;;;5051027;28;20406;-64
2022/01/26 06:14:59;;;;;;;67.32;21.27;;;3.10;99.90;;;;;;5051389;28;20044;-64
2022/01/26 06:17:25;;;;;;;70.72;21.05;;;3.10;99.90;;;;;;5050658;28;20479;-64
2022/01/26 06:19:50;;;;;;;69.38;21.45;;;3.30;99.90;;;;;;5051468;28;20045;-64
2022/01/26 06:22:16;;;;;;;66.85;19.63;;;3.30;99.90;;;;;;5051018;28;20037;-64
2022/01/26 06:24:41;;;;;;;70.47;22.42;;;3.30;99.90;;;;;;5051147;28;20048;-64
2022/01/26 06:27:07;;;;;;;59.38;20.10;;;3.30;99.90;;;;;;5051024;28;20052;-64
2022/01/26 06:29:33;;;;;;;66.07;20.10;;;3.30;99.90;;;;;;5051024;28;20040;-64
2022/01/26 06:31:58;;;;;;;65.72;21.85;;;3.30;99.90;;;;;;5050460;28;20048;-64
2022/01/26 06:34:24;;;;;;;66.47;21.88;;;3.20;99.90;;;;;;5050962;28;20033;-65
2022/01/26 06:36:50;;;;;;;61.85;19.58;;;3.20;99.90;;;;;;5051097;28;20041;-64
2022/01/26 06:39:15;;;;;;;59.20;18.27;;;3.20;99.90;;;;;;5050913;28;20059;-64
2022/01/26 06:41:48;;;;;;;64.78;20.50;;;3.30;99.90;;;;;;5050680;28;20509;-64
2022/01/26 06:44:21;;;;;;;67.72;21.67;;;3.30;99.90;;;;;;5050686;28;20045;-64
2022/01/26 06:51:47;;;;;;;66.05;19.30;;;3.40;99.90;;;;;;5050217;28;20172;-64
2022/01/26 06:54:13;;;;;;;59.50;19.75;;;3.30;99.90;;;;;;5050530;28;20037;-64
2022/01/26 06:56:38;;;;;;;51.40;16.75;;;3.40;99.90;;;;;;5050618;28;20072;-64
2022/01/26 06:59:04;;;;;;;57.03;18.45;;;3.30;99.90;;;;;;5050222;28;20083;-64
2022/01/26 07:01:29;;;;;;;62.22;18.55;;;3.30;99.90;;;;;;5050647;28;20072;-64
2022/01/26 07:03:55;;;;;;;56.85;18.23;;;3.30;99.90;;;;;;5032255;28;20044;-64
2022/01/26 07:06:20;;;;;;;60.08;18.73;;;3.30;99.90;;;;;;5050594;28;20508;-64
2022/01/26 07:08:46;;;;;;;61.42;18.35;;;3.30;99.90;;;;;;5050570;28;20532;-65
2022/01/26 07:11:12;;;;;;;60.30;18.27;;;3.40;99.90;;;;;;5050461;28;20041;-64
2022/01/26 07:13:39;;;;;;;53.63;18.30;;;3.40;99.90;;;;;;5049873;28;20037;-64
2022/01/26 07:21:33;;;;;;;55.55;19.08;;;3.50;99.90;;;;;;5050039;28;20174;-64
2022/01/26 07:24:00;;;;;;;56.08;18.23;;;3.60;99.90;;;;;;5050190;28;20087;-64
2022/01/26 07:26:29;;;;;;;54.35;18.38;;;3.50;99.90;;;;;;5032512;28;20048;-65
2022/01/26 07:29:00;;;;;;;59.97;17.98;;;3.50;99.90;;;;;;5050358;28;20122;-64
2022/01/26 07:31:26;;;;;;;49.95;17.63;;;3.50;99.90;;;;;;5050255;28;20081;-65
2022/01/26 07:33:56;;;;;;;58.28;17.98;;;3.50;99.90;;;;;;5050326;28;20438;-64
2022/01/26 07:36:22;;;;;;;63.53;18.67;;;3.50;99.90;;;;;;5054309;28;20048;-65
2022/01/26 07:38:51;;;;;;;58.20;19.25;;;3.50;99.90;;;;;;5054507;28;20059;-64
2022/01/26 07:41:17;;;;;;;54.17;18.85;;;3.50;99.90;;;;;;5054340;28;20068;-64
2022/01/26 07:43:43;;;;;;;57.83;18.58;;;3.40;99.90;;;;;;5053898;28;20045;-64
2022/01/26 07:46:10;;;;;;;58.88;19.52;;;3.40;99.90;;;;;;5053791;28;20567;-65
2022/01/26 07:48:35;;;;;;;55.75;18.33;;;3.40;99.90;;;;;;5036173;28;20066;-64
2022/01/26 07:51:01;;;;;;;62.97;21.45;;;3.50;99.90;;;;;;5052566;28;20100;-64
2022/01/26 07:53:27;;;;;;;61.92;21.33;;;3.50;99.90;;;;;;5050785;28;20079;-64
2022/01/26 07:55:52;;;;;;;63.55;20.25;;;3.40;99.90;;;;;;5051337;28;20041;-64
2022/01/26 07:58:19;;;;;;;68.45;21.98;;;3.60;99.90;;;;;;5050486;28;20032;-64
2022/01/26 08:00:45;;;;;;;62.70;20.65;;;3.70;99.90;;;;;;5050370;28;20056;-64
2022/01/26 08:03:11;;;;;;;66.47;24.08;;;3.60;99.90;;;;;;5053263;28;20044;-64
2022/01/26 08:05:37;;;;;;;66.88;23.08;;;3.60;99.90;;;;;;5052459;28;20453;-65
2022/01/26 08:08:03;;;;;;;71.97;25.30;;;3.70;99.90;;;;;;5053047;28;20041;-65
2022/01/26 08:10:28;;;;;;;78.15;26.52;;;3.60;99.90;;;;;;5052954;28;20052;-64
2022/01/26 08:12:54;;;;;;;84.05;27.08;;;3.70;99.90;;;;;;5052602;28;20040;-63
2022/01/26 08:15:19;;;;;;;72.95;26.73;;;3.70;99.90;;;;;;5052339;28;20533;-65
2022/01/26 08:17:45;;;;;;;84.28;26.70;;;3.70;99.90;;;;;;5052605;28;20090;-65
2022/01/26 08:20:11;;;;;;;79.93;28.73;;;3.70;99.90;;;;;;5053237;28;20041;-65
2022/01/26 08:22:37;;;;;;;76.60;28.25;;;3.70;99.90;;;;;;5053004;28;20116;-66
2022/01/26 08:25:04;;;;;;;95.80;30.85;;;3.70;99.90;;;;;;5052175;28;20041;-65
2022/01/26 08:27:37;;;;;;;86.97;29.27;;;3.70;99.90;;;;;;5053276;28;20045;-65
2022/01/26 08:30:08;;;;;;;87.22;30.17;;;3.70;99.90;;;;;;5053077;28;20131;-65
2022/01/26 08:32:34;;;;;;;82.28;29.70;;;3.70;99.90;;;;;;5052843;28;20505;-66
2022/01/26 08:35:00;;;;;;;84.28;29.58;;;3.70;99.90;;;;;;5052832;28;20072;-65
2022/01/26 08:37:25;;;;;;;93.68;30.05;;;3.70;99.90;;;;;;5053260;28;20041;-65
2022/01/26 08:39:51;;;;;;;96.82;34.35;;;3.80;99.90;;;;;;5061255;28;20404;-65
2022/01/26 08:42:17;;;;;;;94.38;30.90;;;3.90;99.90;;;;;;5072770;28;20046;-65
2022/01/26 08:44:42;;;;;;;91.45;33.90;;;3.80;99.90;;;;;;5072863;28;20059;-65
2022/01/26 08:47:08;;;;;;;94.30;32.20;;;3.80;99.90;;;;;;5071400;28;20132;-65
2022/01/26 08:49:34;;;;;;;93.05;33.03;;;3.90;99.90;;;;;;5072700;28;20608;-65
2022/01/26 08:52:00;;;;;;;94.97;32.45;;;3.90;99.90;;;;;;5072501;28;20116;-65
2022/01/26 08:54:26;;;;;;;87.60;33.33;;;3.90;99.90;;;;;;5072796;28;20036;-65
2022/01/26 08:56:53;;;;;;;107.20;35.97;;;3.90;99.90;;;;;;5072551;28;20040;-65
2022/01/26 08:59:20;;;;;;;102.72;36.15;;;3.90;99.90;;;;;;5072782;28;20040;-65
2022/01/26 09:01:45;;;;;;;93.90;34.10;;;3.90;99.90;;;;;;5072240;28;20464;-65
2022/01/26 09:04:11;;;;;;;96.50;36.35;;;4.00;99.90;;;;;;5072769;28;20074;-65
2022/01/26 09:06:49;;;;;;;105.43;37.50;;;4.00;99.90;;;;;;5072854;28;20036;-65
2022/01/26 09:09:16;;;;;;;100.80;37.05;;;3.90;99.90;;;;;;5072551;28;20041;-66
2022/01/26 09:11:42;;;;;;;101.20;37.60;;;3.90;99.90;;;;;;5072322;28;20047;-65
2022/01/26 09:14:10;;;;;;;110.28;40.40;;;4.00;99.90;;;;;;5072208;28;20120;-65
2022/01/26 09:16:36;;;;;;;100.60;36.60;;;4.00;99.90;;;;;;5072621;28;20040;-65
2022/01/26 09:19:14;;;;;;;104.25;36.30;;;4.00;99.90;;;;;;5054248;28;20051;-65
2022/01/26 09:21:39;;;;;;;112.80;38.55;;;4.00;99.90;;;;;;5072378;28;20067;-65
2022/01/26 09:24:05;;;;;;;116.78;38.60;;;4.00;99.90;;;;;;5071946;28;20144;-65
2022/01/26 09:26:31;;;;;;;103.28;37.78;;;4.00;99.90;;;;;;5072222;28;20044;-65
2022/01/26 09:28:56;;;;;;;102.18;38.45;;;4.10;99.90;;;;;;5071970;28;20036;-65
2022/01/26 09:31:22;;;;;;;110.18;40.10;;;4.10;99.90;;;;;;5072183;28;20505;-67
2022/01/26 09:33:47;;;;;;;114.13;39.55;;;4.10;99.90;;;;;;5071855;28;20497;-68
2022/01/26 09:36:13;;;;;;;114.70;42.63;;;4.10;99.90;;;;;;5071848;28;20041;-66
2022/01/26 09:38:39;;;;;;;106.78;38.65;;;4.10;99.90;;;;;;5072157;28;20040;-68
2022/01/26 09:41:04;;;;;;;113.47;41.88;;;4.00;99.90;;;;;;5053857;28;20056;-67
2022/01/26 09:43:31;;;;;;;115.75;41.85;;;4.20;99.90;;;;;;5071471;28;20052;-65
2022/01/26 09:45:57;;;;;;;109.43;40.05;;;4.20;99.90;;;;;;5072067;28;20044;-65
2022/01/26 09:48:22;;;;;;;108.13;41.55;;;4.20;99.90;;;;;;5071829;28;20549;-65
2022/01/26 09:50:54;;;;;;;115.43;40.05;;;4.20;99.90;;;;;;5071771;28;20047;-65
2022/01/26 09:53:26;;;;;;;117.22;42.83;;;4.20;99.90;;;;;;5071321;28;20037;-65
2022/01/26 09:55:52;;;;;;;112.30;42.42;;;4.20;99.90;;;;;;5053324;28;20040;-65
2022/01/26 09:58:20;;;;;;;111.78;41.67;;;4.20;99.90;;;;;;5070998;28;20193;-65
2022/01/26 10:00:46;;;;;;;114.70;40.80;;;4.20;99.90;;;;;;5036922;28;20032;-68
2022/01/26 10:03:11;;;;;;;123.32;42.42;;;4.30;99.90;;;;;;5071006;28;20419;-68
2022/01/26 10:05:45;;;;;;;115.07;42.08;;;4.30;99.90;;;;;;5071545;28;20043;-67
2022/01/26 10:08:25;;;;;;;110.20;42.47;;;4.40;99.90;;;;;;5071251;28;20044;-65
2022/01/26 10:19:07;;;;;;;116.40;43.22;;;4.40;99.90;;;;;;5071439;28;20044;-67
2022/01/26 10:21:43;;;;;;;120.07;40.75;;;4.40;99.90;;;;;;5071009;28;20381;-68
2022/01/26 10:24:10;;;;;;;117.57;44.33;;;4.50;99.90;;;;;;5071157;28;20071;-69
2022/01/26 10:26:35;;;;;;;115.63;42.00;;;4.40;99.90;;;;;;5071035;28;20519;-67
2022/01/26 10:29:04;;;;;;;100.68;38.55;;;4.50;99.90;;;;;;5070965;28;20041;-66
2022/01/26 10:31:32;;;;;;;108.97;41.35;;;4.50;99.90;;;;;;5071352;28;20068;-67
2022/01/26 10:34:09;;;;;;;120.07;42.13;;;4.50;99.90;;;;;;5070983;28;20063;-67
2022/01/26 10:36:40;;;;;;;117.60;39.40;;;4.60;99.90;;;;;;5071288;28;20044;-69
2022/01/26 10:39:08;;;;;;;116.75;39.10;;;4.50;99.90;;;;;;5071060;28;20028;-67
2022/01/26 10:41:36;;;;;;;114.40;42.15;;;4.50;99.90;;;;;;5070784;28;20056;-67
2022/01/26 10:44:03;;;;;;;111.22;42.15;;;4.50;99.90;;;;;;5070910;28;20066;-67
2022/01/26 10:46:37;;;;;;;118.32;43.55;;;4.60;99.90;;;;;;5070743;28;20044;-67
2022/01/26 10:49:42;;;;;;;108.38;38.15;;;4.50;99.90;;;;;;5070863;28;20043;-64
2022/01/26 10:52:20;;;;;;;121.45;41.65;;;4.60;99.90;;;;;;5070562;28;20052;-65
2022/01/26 10:54:47;;;;;;;108.18;37.97;;;4.60;99.90;;;;;;5070718;28;20044;-65
2022/01/26 10:57:13;;;;;;;118.05;40.97;;;4.70;99.90;;;;;;5070494;28;20505;-65
2022/01/26 10:59:43;;;;;;;106.00;38.90;;;4.60;99.90;;;;;;5070877;28;20040;-65
2022/01/26 11:02:10;;;;;;;110.63;41.15;;;4.60;99.90;;;;;;5070758;28;20056;-65
2022/01/26 11:04:39;;;;;;;103.63;38.05;;;4.70;99.90;;;;;;5071179;28;20032;-65
2022/01/26 11:07:09;;;;;;;107.03;39.10;;;4.70;99.90;;;;;;5070816;28;20493;-65
2022/01/26 11:09:38;;;;;;;111.35;38.50;;;4.70;99.90;;;;;;5078755;28;20378;-65
2022/01/26 11:12:06;;;;;;;109.30;39.13;;;4.70;99.90;;;;;;5080621;28;20079;-65
2022/01/26 11:15:02;;;;;;;111.93;38.00;;;4.70;99.90;;;;;;5084767;28;20036;-65
2022/01/26 11:17:34;;;;;;;106.70;37.33;;;4.70;99.90;;;;;;5072445;28;20104;-65
2022/01/26 11:20:03;;;;;;;101.82;36.50;;;4.70;99.90;;;;;;5072617;28;20125;-65
2022/01/26 11:22:31;;;;;;;95.30;36.17;;;4.70;99.90;;;;;;5070058;28;20037;-65
2022/01/26 11:25:09;;;;;;;98.07;36.30;;;4.80;99.90;;;;;;5069783;28;20040;-65
2022/01/26 11:27:40;;;;;;;93.32;35.30;;;4.80;99.90;;;;;;5070421;28;20056;-65
2022/01/26 11:30:26;;;;;;;101.88;36.83;;;4.80;99.90;;;;;;5070341;28;20086;-65
2022/01/26 11:32:54;;;;;;;99.18;33.80;;;4.90;99.90;;;;;;5069774;28;20105;-65
2022/01/26 11:35:21;;;;;;;93.82;34.63;;;4.90;99.90;;;;;;5070386;28;20044;-65
2022/01/26 11:46:29;;;;;;;92.10;33.33;;;4.90;99.90;;;;;;5070394;28;20565;-65
2022/01/26 11:49:08;;;;;;;92.40;33.20;;;5.00;99.90;;;;;;5070386;28;20032;-65
2022/01/26 11:51:45;;;;;;;83.40;30.55;;;4.90;99.90;;;;;;5070074;28;20041;-65
2022/01/26 11:54:14;;;;;;;78.50;31.77;;;4.90;99.90;;;;;;5070124;28;20052;-65
2022/01/26 11:56:40;;;;;;;82.75;32.33;;;5.00;99.90;;;;;;5070106;28;20116;-65
2022/01/26 11:59:18;;;;;;;91.15;32.65;;;5.00;99.90;;;;;;5070350;28;20503;-65
2022/01/26 12:01:49;;;;;;;80.78;30.67;;;4.90;99.90;;;;;;5069844;28;20052;-65
2022/01/26 12:04:17;;;;;;;90.35;32.10;;;4.90;99.90;;;;;;5070143;28;20072;-65
2022/01/26 12:06:49;;;;;;;86.47;34.65;;;5.00;99.90;;;;;;5070103;28;20044;-65
2022/01/26 12:09:15;;;;;;;89.47;31.08;;;5.00;99.90;;;;;;5070381;28;20040;-65
2022/01/26 12:11:42;;;;;;;88.40;30.67;;;4.90;99.90;;;;;;5069853;28;20044;-68
2022/01/26 12:14:12;;;;;;;89.72;32.45;;;5.00;99.90;;;;;;5069870;28;20049;-68
2022/01/26 12:16:45;;;;;;;87.88;30.42;;;5.00;99.90;;;;;;5070057;28;20040;-68
2022/01/26 12:35:57;;;;;;;86.57;29.33;;;5.00;99.90;;;;;;5073208;28;20431;-64
2022/01/26 12:38:42;;;;;;;81.38;29.02;;;5.00;99.90;;;;;;5073273;28;20044;-65
2022/01/26 12:43:44;;;;;;;83.07;28.80;;;5.10;99.90;;;;;;5072852;28;20040;-65
2022/01/26 12:46:20;;;;;;;87.10;29.95;;;5.10;99.90;;;;;;5072977;28;20090;-65
2022/01/26 12:48:52;;;;;;;78.22;27.83;;;5.20;99.90;;;;;;5072856;28;20047;-65
2022/01/26 12:51:18;;;;;;;78.38;28.38;;;5.20;99.90;;;;;;5073034;28;20040;-65
2022/01/26 12:53:44;;;;;;;80.15;28.33;;;5.30;99.90;;;;;;5072683;28;20115;-65
2022/01/26 12:56:12;;;;;;;74.90;29.77;;;5.30;99.90;;;;;;5072819;28;20067;-65
2022/01/26 12:58:40;;;;;;;78.50;28.65;;;5.30;99.90;;;;;;5072737;28;20037;-65
2022/01/26 13:01:08;;;;;;;77.10;28.23;;;5.30;99.90;;;;;;5072692;28;20401;-65
2022/01/26 13:03:36;;;;;;;76.15;29.98;;;5.40;99.90;;;;;;5072633;28;20071;-64
2022/01/26 13:06:06;;;;;;;80.72;28.73;;;5.40;99.90;;;;;;5072846;28;20135;-64
2022/01/26 13:08:46;;;;;;;79.03;29.70;;;5.30;99.90;;;;;;5071944;28;20052;-64
2022/01/26 13:11:12;;;;;;;91.40;29.48;;;5.30;99.90;;;;;;5072400;28;20087;-66
2022/01/26 13:13:38;;;;;;;72.90;27.83;;;5.30;99.90;;;;;;5071994;28;20121;-64
2022/01/26 13:16:20;;;;;;;80.13;30.27;;;5.30;99.90;;;;;;5072434;28;20076;-65
2022/01/26 13:24:50;;;;;;;72.00;26.85;;;5.10;99.90;;;;;;5070757;28;20493;-64
2022/01/26 13:27:25;;;;;;;73.72;29.05;;;5.10;99.90;;;;;;5070793;28;20080;-64
2022/01/26 13:32:52;;;;;;;75.97;28.30;;;5.10;99.90;;;;;;5074219;28;20452;-65
2022/01/26 13:35:19;;;;;;;75.63;27.83;;;5.20;99.90;;;;;;5091619;28;20044;-64
2022/01/26 13:38:00;;;;;;;79.15;28.10;;;5.10;99.90;;;;;;5092354;28;20044;-67
2022/01/26 13:45:54;;;;;;;74.70;27.05;;;5.20;99.90;;;;;;5092315;28;20044;-65
2022/01/26 13:51:19;;;;;;;77.25;28.42;;;5.10;99.90;;;;;;5091861;28;20164;-64
2022/01/26 13:56:19;;;;;;;75.40;26.55;;;5.10;99.90;;;;;;5091928;28;20040;-64
2022/01/26 14:01:19;;;;;;;78.18;30.20;;;5.00;99.90;;;;;;5073895;28;20055;-64
2022/01/26 14:03:49;;;;;;;76.80;28.80;;;5.10;99.90;;;;;;5064295;28;20041;-64
2022/01/26 14:06:14;;;;;;;74.07;27.85;;;5.00;99.90;;;;;;5068337;28;20037;-64
2022/01/26 14:08:41;;;;;;;77.38;28.90;;;5.00;99.90;;;;;;5071570;28;20098;-64
2022/01/26 14:11:07;;;;;;;70.10;27.23;;;5.00;99.90;;;;;;5071422;28;20045;-64
2022/01/26 14:13:35;;;;;;;73.32;27.63;;;5.00;99.90;;;;;;5070920;28;20488;-64
2022/01/26 14:16:01;;;;;;;77.05;29.02;;;5.00;99.90;;;;;;5071283;28;20094;-64
2022/01/26 14:23:44;;;;;;;68.75;27.38;;;5.00;99.90;;;;;;5070649;28;20497;-67
2022/01/26 14:26:12;;;;;;;72.47;27.77;;;5.10;99.90;;;;;;5071243;28;20047;-67
2022/01/26 14:28:38;;;;;;;76.18;28.50;;;5.10;99.90;;;;;;5070903;28;20040;-67
2022/01/26 14:55:40;;;;;;;70.28;27.42;;;5.10;99.90;;;;;;5058224;28;20048;-66
2022/01/26 15:08:38;;;;;;;67.13;25.95;;;5.10;99.90;;;;;;5076791;28;20045;-66
2022/01/26 15:21:02;;;;;;;80.68;27.15;;;5.20;99.90;;;;;;5069459;28;20036;-67
2022/01/26 15:31:36;;;;;;;67.80;25.33;;;5.20;99.90;;;;;;5070213;28;20048;-66
2022/01/26 16:28:20;;;;;;;57.08;24.15;;;5.40;99.90;;;;;;5073034;28;20067;-64
2022/01/26 16:35:15;;;;;;;56.55;22.70;;;5.50;99.90;;;;;;5072810;28;20044;-64
2022/01/26 16:37:13;;;;;;;55.25;23.05;;;5.50;99.90;;;;;;5073042;28;20043;-68
2022/01/26 17:46:42;;;;;;;60.10;25.77;;;5.40;99.90;;;;;;5069610;28;20109;-65
2022/01/26 18:16:36;;;;;;;67.82;27.50;;;5.40;99.90;;;;;;5070255;28;20041;-65
2022/01/26 18:32:47;;;;;;;69.28;27.17;;;5.50;99.90;;;;;;5031551;28;20053;-66
2022/01/26 18:40:51;;;;;;;67.78;26.83;;;5.50;99.90;;;;;;5049530;28;20493;-65
2022/01/26 18:51:29;;;;;;;57.03;24.48;;;5.50;99.90;;;;;;5049846;28;20115;-65
2022/01/26 18:53:54;;;;;;;64.28;26.15;;;5.50;99.90;;;;;;5049058;28;20398;-65
2022/01/26 18:56:20;;;;;;;65.90;26.08;;;5.50;99.90;;;;;;5049106;28;20098;-65
2022/01/26 18:58:46;;;;;;;71.72;27.52;;;5.50;99.90;;;;;;5066816;28;20036;-64
2022/01/26 19:01:12;;;;;;;67.78;26.60;;;5.50;99.90;;;;;;5071265;28;20194;-64
2022/01/26 19:03:37;;;;;;;61.17;25.90;;;5.40;99.90;;;;;;5068944;28;20285;-65